createdAt,value
2022-09-16T12:02:13.910Z,15.20
2022-09-16T12:04:46.501Z,15.10
2022-09-16T12:07:19.049Z,15.10
2022-09-16T12:09:53.167Z,15.10
2022-09-16T12:12:25.100Z,15.10
2022-09-16T12:15:04.861Z,14.90
2022-09-16T12:17:37.165Z,14.90
2022-09-16T12:20:14.775Z,15.00
2022-09-16T12:22:47.108Z,14.90
2022-09-16T12:25:18.867Z,14.90
2022-09-16T12:27:53.795Z,14.90
2022-09-16T12:30:26.514Z,14.90
2022-09-16T12:33:00.734Z,14.90
2022-09-16T12:35:33.941Z,14.80
2022-09-16T12:38:02.281Z,14.80
2022-09-16T12:40:38.306Z,14.80
2022-09-16T12:43:38.132Z,14.70
2022-09-16T12:46:31.760Z,14.70
2022-09-16T12:49:54.161Z,14.70
2022-09-16T12:52:28.664Z,14.70
2022-09-16T12:55:29.953Z,14.70
2022-09-16T12:58:21.367Z,14.60
2022-09-16T13:00:59.176Z,14.60
2022-09-16T13:03:32.027Z,14.60
2022-09-16T13:06:04.129Z,14.60
2022-09-16T13:08:33.625Z,14.60
2022-09-16T13:11:47.188Z,14.60
2022-09-16T13:13:57.389Z,14.70
2022-09-16T13:16:32.085Z,14.70
2022-09-16T13:19:31.039Z,14.60
2022-09-16T13:22:03.461Z,14.60
2022-09-16T13:24:38.934Z,14.50
2022-09-16T13:27:27.142Z,14.40
2022-09-16T13:30:14.522Z,14.40
2022-09-16T13:32:46.090Z,14.40
2022-09-16T13:35:37.283Z,14.50
2022-09-16T13:38:29.136Z,14.50
2022-09-16T13:40:59.419Z,14.50
2022-09-16T13:43:32.872Z,14.60
2022-09-16T13:46:09.388Z,14.60
2022-09-16T13:48:43.309Z,14.60
2022-09-16T13:51:18.339Z,14.60
2022-09-16T13:53:52.154Z,14.60
2022-09-16T13:56:36.863Z,14.50
2022-09-16T13:59:20.440Z,14.60
2022-09-16T14:02:00.082Z,14.40
2022-09-16T14:04:42.380Z,14.40
2022-09-16T14:07:27.445Z,14.50
2022-09-16T14:10:09.379Z,14.50
2022-09-16T14:12:45.735Z,14.50
2022-09-16T14:15:16.248Z,14.50
2022-09-16T14:17:51.315Z,14.50
2022-09-16T14:20:21.829Z,14.50
2022-09-16T14:23:02.456Z,14.40
2022-09-16T14:25:33.341Z,14.40
2022-09-16T14:28:26.192Z,14.30
2022-09-16T14:30:56.781Z,14.30
2022-09-16T14:33:29.871Z,14.20
2022-09-16T14:35:59.894Z,14.30
2022-09-16T14:38:45.474Z,14.30
2022-09-16T14:41:23.712Z,14.20
2022-09-16T14:43:52.842Z,14.20
2022-09-16T14:46:21.211Z,14.20
2022-09-16T14:48:50.159Z,14.20
2022-09-16T14:51:25.250Z,14.20
2022-09-16T14:54:12.280Z,14.20
2022-09-16T14:56:41.401Z,14.20
2022-09-16T14:59:12.745Z,14.20
2022-09-16T15:01:42.407Z,14.20
2022-09-16T15:04:22.071Z,14.20
2022-09-16T15:06:55.522Z,14.20
2022-09-16T15:09:29.407Z,14.10
2022-09-16T15:12:00.559Z,14.00
2022-09-16T15:14:29.077Z,14.00
2022-09-16T15:17:02.940Z,14.00
2022-09-16T15:19:35.223Z,14.00
2022-09-16T15:22:04.019Z,14.00
2022-09-16T15:24:35.951Z,14.00
2022-09-16T15:27:04.489Z,14.00
2022-09-16T15:29:35.300Z,14.00
2022-09-16T15:32:19.418Z,13.90
2022-09-16T15:34:48.117Z,13.90
2022-09-16T15:37:32.902Z,13.80
2022-09-16T15:40:24.455Z,13.90
2022-09-16T15:43:04.810Z,13.80
2022-09-16T15:45:33.119Z,13.80
2022-09-16T15:48:05.655Z,13.80
2022-09-16T15:50:42.346Z,13.80
2022-09-16T15:53:15.211Z,13.70
2022-09-16T15:55:53.667Z,13.80
2022-09-16T15:58:33.889Z,13.90
2022-09-16T16:01:04.613Z,13.90
2022-09-16T16:03:38.797Z,13.90
2022-09-16T16:06:07.305Z,13.70
2022-09-16T16:08:44.227Z,13.70
2022-09-16T16:11:15.392Z,13.80
2022-09-16T16:13:44.362Z,13.80
2022-09-16T16:16:14.479Z,13.70
2022-09-16T16:18:43.612Z,13.80
2022-09-16T16:21:13.660Z,13.90
2022-09-16T16:23:42.102Z,13.90
2022-09-16T16:26:12.169Z,13.90
2022-09-16T16:28:42.955Z,13.90
2022-09-16T16:31:14.331Z,13.80
2022-09-16T16:33:45.104Z,13.70
2022-09-16T16:36:14.977Z,13.70
2022-09-16T16:38:43.736Z,13.60
2022-09-16T16:41:12.474Z,13.50
2022-09-16T16:43:42.227Z,13.50
2022-09-16T16:46:10.313Z,13.50
2022-09-16T16:48:39.194Z,13.40
2022-09-16T16:51:09.941Z,13.40
2022-09-16T16:53:38.250Z,13.30
2022-09-16T16:56:13.847Z,13.20
2022-09-16T16:58:44.693Z,13.20
2022-09-16T17:01:16.387Z,13.20
2022-09-16T17:03:46.448Z,13.20
2022-09-16T17:06:14.906Z,13.10
2022-09-16T17:08:43.044Z,13.00
2022-09-16T17:11:13.581Z,13.00
2022-09-16T17:13:43.059Z,12.90
2022-09-16T17:16:15.083Z,12.70
2022-09-16T17:18:44.126Z,12.80
2022-09-16T17:21:13.638Z,12.80
2022-09-16T17:23:42.469Z,12.80
2022-09-16T17:26:11.266Z,12.80
2022-09-16T17:28:40.368Z,12.80
2022-09-16T17:31:13.250Z,12.80
2022-09-16T17:33:41.395Z,12.80
2022-09-16T17:36:11.264Z,12.80
2022-09-16T17:38:39.387Z,12.80
2022-09-16T17:41:09.102Z,12.80
2022-09-16T17:43:37.775Z,12.70
2022-09-16T17:46:07.573Z,12.70
2022-09-16T17:48:38.015Z,12.70
2022-09-16T17:51:06.324Z,12.60
2022-09-16T17:53:35.122Z,12.60
2022-09-16T17:56:04.875Z,12.50
2022-09-16T17:58:34.005Z,12.50
2022-09-16T18:01:07.755Z,12.50
2022-09-16T18:03:37.797Z,12.40
2022-09-16T18:06:12.945Z,12.40
2022-09-16T18:08:41.615Z,12.40
2022-09-16T18:11:11.523Z,12.40
2022-09-16T18:13:40.457Z,12.40
2022-09-16T18:16:11.350Z,12.30
2022-09-16T18:18:42.695Z,12.40
2022-09-16T18:21:14.391Z,12.40
2022-09-16T18:23:42.883Z,12.40
2022-09-16T18:26:15.115Z,12.40
2022-09-16T18:29:07.911Z,12.40
2022-09-16T18:31:34.338Z,12.30
2022-09-16T18:34:03.969Z,12.30
2022-09-16T18:36:33.816Z,12.40
2022-09-16T18:39:02.454Z,12.40
2022-09-16T18:41:31.861Z,12.40
2022-09-16T18:44:02.333Z,12.40
2022-09-16T18:46:32.362Z,12.40
2022-09-16T18:49:00.713Z,12.50
2022-09-16T18:51:32.070Z,12.50
2022-09-16T18:54:02.270Z,12.50
2022-09-16T18:56:32.954Z,12.50
2022-09-16T18:59:21.006Z,12.50
2022-09-16T19:01:50.281Z,12.50
2022-09-16T19:04:20.951Z,12.50
2022-09-16T19:06:52.779Z,12.40
2022-09-16T19:09:22.771Z,12.40
2022-09-16T19:11:52.370Z,12.40
2022-09-16T19:14:24.121Z,12.40
2022-09-16T19:16:52.464Z,12.40
2022-09-16T19:19:21.321Z,12.40
2022-09-16T19:21:51.093Z,12.40
2022-09-16T19:24:20.590Z,12.30
2022-09-16T19:26:51.222Z,12.30
2022-09-16T19:29:19.937Z,12.20
2022-09-16T19:31:50.120Z,12.30
2022-09-16T19:34:18.825Z,12.20
2022-09-16T19:36:47.234Z,12.20
2022-09-16T19:39:17.067Z,12.10
2022-09-16T19:41:45.407Z,12.10
2022-09-16T19:44:15.695Z,12.00
2022-09-16T19:46:46.886Z,12.00
2022-09-16T19:49:16.909Z,12.00
2022-09-16T19:51:45.252Z,11.90
2022-09-16T19:54:13.735Z,12.00
2022-09-16T19:56:46.994Z,11.90
2022-09-16T19:59:19.461Z,11.90
2022-09-16T20:01:48.529Z,11.90
2022-09-16T20:04:19.572Z,11.80
2022-09-16T20:06:48.419Z,11.90
2022-09-16T20:09:17.357Z,11.80
2022-09-16T20:11:48.577Z,11.80
2022-09-16T20:14:19.686Z,11.80
2022-09-16T20:16:49.046Z,11.80
2022-09-16T20:19:20.470Z,11.80
2022-09-16T20:21:49.041Z,11.70
2022-09-16T20:24:19.163Z,11.70
2022-09-16T20:26:49.539Z,11.70
2022-09-16T20:29:19.387Z,11.70
2022-09-16T20:31:48.918Z,11.70
2022-09-16T20:34:17.543Z,11.70
2022-09-16T20:36:46.810Z,11.70
2022-09-16T20:39:15.811Z,11.70
2022-09-16T20:41:50.136Z,11.70
2022-09-16T20:44:19.815Z,11.70
2022-09-16T20:46:48.953Z,11.60
2022-09-16T20:49:19.161Z,11.60
2022-09-16T20:51:48.286Z,11.60
2022-09-16T20:54:17.417Z,11.60
2022-09-16T20:56:48.251Z,11.60
2022-09-16T20:59:21.035Z,11.60
2022-09-16T21:01:50.075Z,11.70
2022-09-16T21:04:20.043Z,11.70
2022-09-16T21:06:48.471Z,11.70
2022-09-16T21:09:19.158Z,11.70
2022-09-16T21:11:47.821Z,11.70
2022-09-16T21:14:17.326Z,11.80
2022-09-16T21:16:49.464Z,11.80
2022-09-16T21:19:18.128Z,11.80
2022-09-16T21:21:48.659Z,11.80
2022-09-16T21:24:17.460Z,11.80
2022-09-16T21:26:46.109Z,11.80
2022-09-16T21:29:16.219Z,11.80
2022-09-16T21:31:44.808Z,11.80
2022-09-16T21:34:16.512Z,11.80
2022-09-16T21:36:45.470Z,11.80
2022-09-16T21:39:14.598Z,11.80
2022-09-16T21:41:43.368Z,11.90
2022-09-16T21:44:12.286Z,11.90
2022-09-16T21:46:45.262Z,11.90
2022-09-16T21:49:22.582Z,11.90
2022-09-16T21:51:51.849Z,11.90
2022-09-16T21:54:20.685Z,11.90
2022-09-16T21:56:50.039Z,11.90
2022-09-16T21:59:19.746Z,11.90
2022-09-16T22:01:49.494Z,12.00
2022-09-16T22:04:20.913Z,12.00
2022-09-16T22:06:49.946Z,11.90
2022-09-16T22:09:18.701Z,12.00
2022-09-16T22:11:47.517Z,12.00
2022-09-16T22:14:15.741Z,12.00
2022-09-16T22:16:44.151Z,12.00
2022-09-16T22:19:15.048Z,12.00
2022-09-16T22:21:47.050Z,12.10
2022-09-16T22:24:16.715Z,12.10
2022-09-16T22:26:44.823Z,12.10
2022-09-16T22:29:13.590Z,12.20
2022-09-16T22:31:42.903Z,12.20
2022-09-16T22:34:12.849Z,12.20
2022-09-16T22:36:40.923Z,12.20
2022-09-16T22:39:14.410Z,12.20
2022-09-16T22:41:42.935Z,12.20
2022-09-16T22:44:11.421Z,12.20
2022-09-16T22:46:42.811Z,12.20
2022-09-16T22:49:11.545Z,12.20
2022-09-16T22:51:40.139Z,12.10
2022-09-16T22:54:10.295Z,12.10
2022-09-16T22:56:38.257Z,12.10
2022-09-16T22:59:08.463Z,12.00
2022-09-16T23:01:40.207Z,12.00
2022-09-16T23:04:10.716Z,11.90
2022-09-16T23:06:40.186Z,11.90
2022-09-16T23:09:11.874Z,11.90
2022-09-16T23:11:40.319Z,11.90
2022-09-16T23:14:11.055Z,11.80
2022-09-16T23:16:39.460Z,11.80
2022-09-16T23:19:10.784Z,11.80
2022-09-16T23:21:40.137Z,11.80
2022-09-16T23:24:14.857Z,11.80
2022-09-16T23:26:43.420Z,11.80
2022-09-16T23:29:12.991Z,11.80
2022-09-16T23:31:43.379Z,11.80
2022-09-16T23:34:14.611Z,11.80
2022-09-16T23:36:44.496Z,11.80
2022-09-16T23:39:15.555Z,11.80
2022-09-16T23:41:44.262Z,11.80
2022-09-16T23:44:14.896Z,11.90
2022-09-16T23:46:43.539Z,11.90
2022-09-16T23:49:12.519Z,11.90
2022-09-16T23:51:40.668Z,11.90
2022-09-16T23:54:08.881Z,11.90
2022-09-16T23:56:38.191Z,11.90
2022-09-16T23:59:06.240Z,11.90
